Terminal Aerodrome Forecast
Issued by NWS

Home | Current Version | Previous Version | Text Only | Print | Product List | Glossary On
Versions: 1 2 3 4 5 6 7 8 9 10 11 12 13 14 15 16 17 18 19 20 21 22 23 24 25 26 27 28 29 30
000
FTUS43 KIND 182320
TAFBMG
TAF
KBMG 182320Z 1900/1924 32006KT P6SM -RA BKN008 OVC020
     FM190200 35010KT 4SM SHRA BR OVC008
     FM190900 36015KT 6SM SHRA BR OVC012
     FM191300 36012KT P6SM VCSH OVC009
     FM191800 36012KT P6SM OVC011
      AMD LTD TO CLD VIS AND WIND 1901/1913=

USA.gov is the U.S. government's official web portal to all federal, state and local government web resources and services.